createdAt,value
2022-08-26T00:00:30.483Z,95031.87
2022-08-26T00:03:04.554Z,95023.44
2022-08-26T00:05:35.868Z,95024.31
2022-08-26T00:08:06.121Z,95017.95
2022-08-26T00:10:36.525Z,95016.68
2022-08-26T00:13:06.362Z,95015.77
2022-08-26T00:15:37.242Z,95015.13
2022-08-26T00:18:22.043Z,95018.31
2022-08-26T00:20:37.191Z,95017.91
2022-08-26T00:23:06.749Z,95018.59
2022-08-26T00:25:39.372Z,95017.36
2022-08-26T00:28:10.847Z,95016.68
2022-08-26T00:30:40.261Z,95013.02
2022-08-26T00:33:09.959Z,95005.06
2022-08-26T00:35:39.778Z,95012.98
2022-08-26T00:38:10.402Z,95010.88
2022-08-26T00:40:48.768Z,95009.48
2022-08-26T00:43:18.306Z,95008.84
2022-08-26T00:45:59.769Z,95011.66
2022-08-26T00:48:31.955Z,95007.41
2022-08-26T00:51:09.705Z,95010.23
2022-08-26T00:53:41.389Z,95011.59
2022-08-26T00:56:16.735Z,95009.72
2022-08-26T00:58:48.042Z,95021.41
2022-08-26T01:01:19.900Z,95017.34
2022-08-26T01:03:50.429Z,95015.13
2022-08-26T01:06:19.765Z,95017.34
2022-08-26T01:08:48.503Z,95014.85
2022-08-26T01:11:17.757Z,95014.45
2022-08-26T01:13:49.694Z,95002.72
2022-08-26T01:16:18.741Z,95010.48
2022-08-26T01:18:50.010Z,95007.61
2022-08-26T01:21:36.678Z,94999.77
2022-08-26T01:24:07.788Z,94996.47
2022-08-26T01:26:44.769Z,94995.55
2022-08-26T01:29:22.727Z,94995.31
2022-08-26T01:31:57.660Z,94998.03
2022-08-26T01:34:29.633Z,94995.52
2022-08-26T01:37:10.175Z,94993.62
2022-08-26T01:39:41.418Z,94994.02
2022-08-26T01:42:14.149Z,94996.56
2022-08-26T01:44:46.279Z,95007.58
2022-08-26T01:47:17.173Z,95003.64
2022-08-26T01:49:53.714Z,95001.61
2022-08-26T01:52:27.638Z,95002.27
2022-08-26T01:54:58.619Z,95007.61
2022-08-26T01:57:29.478Z,95002.24
2022-08-26T02:00:14.150Z,95001.17
2022-08-26T02:02:50.476Z,95001.37
2022-08-26T02:05:45.240Z,94929.17
2022-08-26T02:08:24.641Z,94991.22
2022-08-26T02:10:56.735Z,95000.53
2022-08-26T02:13:35.361Z,95005.30
2022-08-26T02:16:08.713Z,95002.52
2022-08-26T02:18:43.990Z,94999.42
2022-08-26T02:21:14.823Z,94999.26
2022-08-26T02:23:47.789Z,95001.64
2022-08-26T02:26:20.068Z,94993.42
2022-08-26T02:28:54.580Z,94992.86
2022-08-26T02:31:23.794Z,94999.97
2022-08-26T02:33:54.307Z,94999.81
2022-08-26T02:36:35.381Z,94998.62
2022-08-26T02:39:06.145Z,94995.23
2022-08-26T02:41:44.977Z,95000.16
2022-08-26T02:44:15.367Z,94992.56
2022-08-26T02:46:47.043Z,94991.38
2022-08-26T02:49:17.355Z,94990.50
2022-08-26T02:51:47.076Z,94997.71
2022-08-26T02:54:15.958Z,95003.48
2022-08-26T02:56:45.923Z,94998.78
2022-08-26T02:59:15.426Z,94999.64
2022-08-26T03:01:45.434Z,94998.33
2022-08-26T03:04:16.280Z,94993.75
2022-08-26T03:06:52.742Z,94996.38
2022-08-26T03:09:18.573Z,94998.62
2022-08-26T03:11:47.361Z,95001.32
2022-08-26T03:14:16.091Z,94995.05
2022-08-26T03:16:44.835Z,95003.98
2022-08-26T03:19:15.327Z,95006.02
2022-08-26T03:21:47.203Z,95003.02
2022-08-26T03:24:17.826Z,95006.32
2022-08-26T03:26:52.730Z,95013.83
2022-08-26T03:29:36.363Z,95004.73
2022-08-26T03:32:06.273Z,95000.16
2022-08-26T03:34:35.892Z,95001.86
2022-08-26T03:37:05.159Z,95000.84
2022-08-26T03:39:34.188Z,95007.24
2022-08-26T03:42:03.049Z,95003.78
2022-08-26T03:44:31.749Z,94999.56
2022-08-26T03:47:01.582Z,94996.39
2022-08-26T03:49:34.107Z,95002.83
2022-08-26T03:52:03.795Z,94998.34
2022-08-26T03:54:32.540Z,95004.50
2022-08-26T03:57:01.753Z,95002.36
2022-08-26T03:59:30.348Z,95000.06
2022-08-26T04:02:01.267Z,95001.61
2022-08-26T04:04:31.987Z,95001.47
2022-08-26T04:07:03.501Z,95005.16
2022-08-26T04:09:35.183Z,95000.58
2022-08-26T04:12:04.566Z,94998.22
2022-08-26T04:14:35.244Z,94995.31
2022-08-26T04:17:08.290Z,94999.70
2022-08-26T04:19:40.091Z,94997.59
2022-08-26T04:22:08.772Z,94995.64
2022-08-26T04:24:39.567Z,95002.72
2022-08-26T04:27:08.843Z,94999.70
2022-08-26T05:02:51.585Z,94988.42
2022-08-26T05:05:20.659Z,95006.30
2022-08-26T05:07:49.950Z,95005.88
2022-08-26T05:10:22.086Z,95003.52
2022-08-26T05:12:50.769Z,95008.16
2022-08-26T05:15:21.516Z,95005.77
2022-08-26T05:17:51.694Z,95013.27
2022-08-26T05:20:25.136Z,95012.33
2022-08-26T05:22:52.559Z,95017.00
2022-08-26T05:25:22.311Z,95011.67
2022-08-26T05:27:53.550Z,95016.48
2022-08-26T05:30:25.216Z,95018.61
2022-08-26T05:32:55.527Z,95020.12
2022-08-26T05:35:24.240Z,95018.15
2022-08-26T05:37:53.398Z,95024.20
2022-08-26T05:40:24.769Z,95014.78
2022-08-26T05:43:01.970Z,95016.05
2022-08-26T05:45:34.785Z,95020.97
2022-08-26T05:48:08.022Z,95023.75
2022-08-26T05:50:50.901Z,95022.59
2022-08-26T05:53:26.205Z,95023.01
2022-08-26T05:55:56.401Z,95025.56
2022-08-26T05:58:32.938Z,95024.61
2022-08-26T06:01:09.569Z,95024.64
2022-08-26T06:03:42.546Z,95028.70
2022-08-26T06:06:16.788Z,95023.20
2022-08-26T06:11:42.994Z,95033.70
2022-08-26T06:23:26.550Z,95033.56
2022-08-26T06:54:40.991Z,95043.34
2022-08-26T06:57:14.872Z,95054.09
2022-08-26T06:59:45.306Z,95041.03
2022-08-26T07:02:15.697Z,95043.55
2022-08-26T07:04:47.789Z,95047.28
2022-08-26T07:07:16.790Z,95046.44
2022-08-26T07:29:47.820Z,95049.30
2022-08-26T07:38:55.893Z,95055.11
2022-08-26T07:41:51.586Z,95058.34
2022-08-26T07:44:37.311Z,95056.28
2022-08-26T07:56:25.984Z,95041.52
2022-08-26T07:58:56.391Z,95060.09
2022-08-26T08:01:30.177Z,95055.19
2022-08-26T08:04:11.813Z,95054.06
2022-08-26T08:06:53.112Z,95055.37
2022-08-26T08:15:56.508Z,94982.05
2022-08-26T08:18:25.231Z,95052.80
2022-08-26T08:20:59.131Z,95051.42
2022-08-26T08:23:27.191Z,95052.70
2022-08-26T08:26:08.324Z,95055.70
2022-08-26T08:28:38.678Z,95049.48
2022-08-26T08:31:09.700Z,95061.53
2022-08-26T08:33:38.525Z,95049.99
2022-08-26T08:36:09.223Z,95050.97
2022-08-26T08:38:39.881Z,95047.33
2022-08-26T08:41:19.615Z,95052.38
2022-08-26T08:44:02.388Z,95041.61
2022-08-26T08:49:26.155Z,95035.12
2022-08-26T08:52:22.904Z,95036.26
2022-08-26T08:54:57.835Z,95035.00
2022-08-26T08:55:48.762Z,95037.16
2022-08-26T08:57:53.682Z,95029.60
2022-08-26T09:00:30.291Z,95027.89
2022-08-26T09:03:31.241Z,95013.10
2022-08-26T09:05:55.257Z,95025.64
2022-08-26T09:08:50.453Z,95011.61
2022-08-26T09:11:40.132Z,95021.54
2022-08-26T09:14:14.376Z,95021.08
2022-08-26T09:17:12.336Z,95021.64
2022-08-26T09:19:51.474Z,95013.80
2022-08-26T09:22:41.256Z,95025.84
2022-08-26T09:25:22.572Z,95015.56
2022-08-26T09:27:54.429Z,95008.66
2022-08-26T09:30:35.113Z,94991.56
2022-08-26T09:33:14.541Z,95003.11
2022-08-26T09:35:48.761Z,95003.30
2022-08-26T09:38:29.696Z,94991.23
2022-08-26T09:41:05.152Z,94996.57
2022-08-26T09:43:34.647Z,94993.87
2022-08-26T09:46:21.513Z,95006.05
2022-08-26T09:48:51.778Z,95006.94
2022-08-26T09:51:29.621Z,95005.49
2022-08-26T09:54:05.805Z,95005.22
2022-08-26T09:56:39.210Z,95003.55
2022-08-26T09:59:18.843Z,95006.09
2022-08-26T10:01:48.305Z,95004.42
2022-08-26T10:04:30.890Z,95001.98
2022-08-26T10:07:08.387Z,94996.30
2022-08-26T10:09:45.318Z,94995.45
2022-08-26T10:15:08.384Z,94990.10
2022-08-26T10:17:46.541Z,94992.84
2022-08-26T10:20:24.039Z,94993.03
2022-08-26T10:23:03.430Z,94985.61
2022-08-26T10:35:57.948Z,94983.93
2022-08-26T10:38:41.584Z,94991.74
2022-08-26T10:41:18.238Z,94984.72
2022-08-26T10:43:57.433Z,94984.53
2022-08-26T10:46:29.478Z,94980.10
2022-08-26T10:49:19.913Z,94979.50
2022-08-26T10:52:12.149Z,94983.05
2022-08-26T10:54:46.220Z,94975.79
2022-08-26T10:57:46.257Z,94974.50
2022-08-26T11:00:39.215Z,94978.80
2022-08-26T11:03:54.550Z,94974.72
2022-08-26T11:09:49.124Z,94965.52
2022-08-26T11:12:42.335Z,94969.58
2022-08-26T11:15:13.962Z,94968.24
2022-08-26T11:20:42.500Z,94964.09
2022-08-26T11:23:25.083Z,94964.12
2022-08-26T11:26:11.925Z,94965.10
2022-08-26T11:28:53.901Z,94963.78
2022-08-26T11:31:30.617Z,94963.19
2022-08-26T11:34:04.459Z,94957.32
2022-08-26T11:36:54.860Z,94955.67
2022-08-26T11:43:18.907Z,94961.70
2022-08-26T11:48:50.831Z,94951.80
2022-08-26T11:57:49.655Z,94945.15
2022-08-26T12:00:34.452Z,94938.50
2022-08-26T12:06:08.142Z,94934.52
2022-08-26T12:08:49.530Z,94934.41
2022-08-26T12:14:36.103Z,94933.55
2022-08-26T12:17:49.432Z,94927.81
2022-08-26T12:20:32.765Z,94922.12
2022-08-26T12:23:00.873Z,94921.81
2022-08-26T12:25:36.294Z,94913.08
2022-08-26T12:28:14.574Z,94917.69
2022-08-26T12:31:03.156Z,94915.03
2022-08-26T12:33:35.453Z,94906.80
2022-08-26T12:36:16.369Z,94911.92
2022-08-26T12:43:13.633Z,94900.05
2022-08-26T12:49:05.428Z,94904.86
2022-08-26T12:52:04.120Z,94899.36
2022-08-26T12:54:28.460Z,94900.06
2022-08-26T12:56:57.822Z,94907.47
2022-08-26T12:59:27.521Z,94909.30
2022-08-26T13:01:58.380Z,94900.94
2022-08-26T13:04:42.848Z,94905.30
2022-08-26T13:07:22.301Z,94904.48
2022-08-26T13:09:53.379Z,94906.27
2022-08-26T13:12:29.888Z,94900.09
2022-08-26T13:15:01.081Z,94902.07
2022-08-26T13:17:30.945Z,94888.72
2022-08-26T13:20:04.040Z,94891.06
2022-08-26T13:22:33.746Z,94879.95
2022-08-26T13:25:02.588Z,94881.23
2022-08-26T13:27:31.229Z,94887.89
2022-08-26T13:30:01.644Z,94886.33
2022-08-26T13:32:30.493Z,94875.74
2022-08-26T13:35:05.719Z,94873.26
2022-08-26T13:37:34.686Z,94876.12
2022-08-26T13:40:02.790Z,94868.90
2022-08-26T13:42:32.556Z,94877.14
2022-08-26T13:45:11.333Z,94878.48
2022-08-26T13:47:40.135Z,94877.74
2022-08-26T13:50:11.769Z,94871.88
2022-08-26T13:52:42.244Z,94866.87
2022-08-26T13:58:08.577Z,94874.38
2022-08-26T14:00:43.242Z,94870.52
2022-08-26T14:03:17.616Z,94877.60
2022-08-26T14:05:55.659Z,94874.62
2022-08-26T14:08:26.024Z,94871.53
2022-08-26T14:10:59.535Z,94880.76
2022-08-26T14:13:28.939Z,94881.02
2022-08-26T14:16:01.735Z,94882.99
2022-08-26T14:21:14.688Z,94877.77
2022-08-26T14:23:46.250Z,94875.14
2022-08-26T14:26:28.799Z,94870.75
2022-08-26T14:28:58.007Z,94871.77
2022-08-26T14:31:31.922Z,94874.39
2022-08-26T14:34:09.837Z,94874.25
2022-08-26T14:36:39.336Z,94873.25
2022-08-26T14:39:20.152Z,94880.88
2022-08-26T14:42:02.817Z,94876.38
2022-08-26T14:44:44.482Z,94873.02
2022-08-26T14:50:49.898Z,94864.96
2022-08-26T14:54:00.419Z,94871.20
2022-08-26T14:59:38.472Z,94876.38
2022-08-26T15:02:13.792Z,94880.20
2022-08-26T15:04:52.309Z,94876.70
2022-08-26T15:07:25.421Z,94867.91
2022-08-26T15:09:57.507Z,94870.44
2022-08-26T15:12:37.253Z,94831.67
2022-08-26T15:15:07.856Z,94874.53
2022-08-26T15:17:54.834Z,94873.09
2022-08-26T15:21:12.145Z,94875.73
2022-08-26T15:23:20.949Z,94872.70
2022-08-26T15:25:51.722Z,94868.98
2022-08-26T15:28:20.531Z,94870.64
2022-08-26T15:30:51.496Z,94873.28
2022-08-26T15:33:22.094Z,94867.97
2022-08-26T15:35:55.336Z,94874.30
2022-08-26T15:38:25.420Z,94869.45
2022-08-26T15:40:58.710Z,94873.39
2022-08-26T15:43:29.126Z,94877.57
2022-08-26T15:45:58.796Z,94875.52
2022-08-26T15:48:33.877Z,94869.43
2022-08-26T15:51:03.101Z,94870.27
2022-08-26T15:53:34.056Z,94877.47
2022-08-26T15:56:03.042Z,94865.59
2022-08-26T15:58:31.988Z,94868.86
2022-08-26T16:01:01.126Z,94870.27
2022-08-26T16:03:29.947Z,94876.52
2022-08-26T16:05:59.233Z,94875.62
2022-08-26T16:08:27.827Z,94873.26
2022-08-26T16:11:03.694Z,94871.50
2022-08-26T16:13:39.681Z,94868.36
2022-08-26T16:16:06.875Z,94865.28
2022-08-26T16:18:37.374Z,94828.27
2022-08-26T16:21:13.612Z,94862.34
2022-08-26T16:23:39.011Z,94867.31
2022-08-26T16:26:15.991Z,94863.68
2022-08-26T16:28:45.035Z,94866.28
2022-08-26T16:31:15.247Z,94861.55
2022-08-26T16:33:46.406Z,94859.13
2022-08-26T16:36:19.329Z,94859.78
2022-08-26T16:38:52.750Z,94868.11
2022-08-26T16:41:22.259Z,94835.77
2022-08-26T16:43:53.213Z,94866.77
2022-08-26T16:46:25.039Z,94868.84
2022-08-26T16:48:57.791Z,94868.03
2022-08-26T16:51:29.068Z,94868.88
2022-08-26T16:54:01.356Z,94868.70
2022-08-26T16:56:34.046Z,94867.84
2022-08-26T16:59:08.468Z,94867.30
2022-08-26T17:01:38.299Z,94865.52
2022-08-26T17:04:07.039Z,94866.88
2022-08-26T17:06:36.442Z,94871.64
2022-08-26T17:09:06.848Z,94874.17
2022-08-26T17:11:36.345Z,94877.81
2022-08-26T17:14:05.835Z,94878.32
2022-08-26T17:16:34.662Z,94877.03
2022-08-26T17:19:04.574Z,94882.94
2022-08-26T17:21:36.393Z,94887.69
2022-08-26T17:24:06.753Z,94884.55
2022-08-26T17:26:38.938Z,94890.52
2022-08-26T17:29:08.109Z,94889.89
2022-08-26T17:31:39.497Z,94890.04
2022-08-26T17:34:09.938Z,94894.21
2022-08-26T17:36:38.731Z,94893.38
2022-08-26T17:39:07.519Z,94893.72
2022-08-26T17:41:36.395Z,94899.48
2022-08-26T17:44:06.127Z,94900.16
2022-08-26T17:46:38.465Z,94895.72
2022-08-26T17:49:11.021Z,94900.20
2022-08-26T17:54:41.198Z,94905.58
2022-08-26T17:57:10.686Z,94907.58
2022-08-26T18:00:32.858Z,94908.38
2022-08-26T18:03:33.659Z,94907.95
2022-08-26T18:08:53.894Z,94913.16
2022-08-26T18:14:59.609Z,94912.39
2022-08-26T18:17:29.993Z,94919.34
2022-08-26T18:19:59.096Z,94913.44
2022-08-26T18:22:27.983Z,94916.76
2022-08-26T18:24:58.737Z,94918.56
2022-08-26T18:27:27.433Z,94928.25
2022-08-26T18:29:56.548Z,94918.89
2022-08-26T18:32:25.292Z,94919.48
2022-08-26T18:34:54.172Z,94926.41
2022-08-26T18:37:24.185Z,94926.70
2022-08-26T18:39:53.737Z,94924.91
2022-08-26T18:42:24.179Z,94921.00
2022-08-26T18:44:53.023Z,94931.41
2022-08-26T18:47:22.695Z,94932.16
2022-08-26T18:49:51.491Z,94939.22
2022-08-26T18:52:20.228Z,94944.66
2022-08-26T18:54:48.947Z,94939.84
2022-08-26T18:57:17.624Z,94937.72
2022-08-26T18:59:46.466Z,94949.41
2022-08-26T19:02:16.015Z,94941.21
2022-08-26T19:04:44.881Z,94937.30
2022-08-26T19:07:14.750Z,94937.91
2022-08-26T19:09:43.349Z,94943.93
2022-08-26T19:12:15.011Z,94943.91
2022-08-26T19:14:48.164Z,94941.34
2022-08-26T19:17:17.061Z,94944.05
2022-08-26T19:20:16.036Z,94944.33
2022-08-26T19:22:46.062Z,94945.23
2022-08-26T19:25:14.926Z,94945.96
2022-08-26T19:30:53.391Z,94953.28
2022-08-26T19:33:41.595Z,94961.09
2022-08-26T19:39:08.395Z,94954.02
2022-08-26T19:41:39.179Z,94958.08
2022-08-26T19:44:12.952Z,94953.41
2022-08-26T19:49:37.836Z,94950.05
2022-08-26T19:52:36.069Z,94953.66
2022-08-26T20:01:09.592Z,94961.47
2022-08-26T20:03:43.539Z,94960.05
2022-08-26T20:06:14.403Z,94964.07
2022-08-26T20:08:44.404Z,94958.63
2022-08-26T20:11:16.626Z,94958.14
2022-08-26T20:13:47.745Z,94962.60
2022-08-26T20:16:18.303Z,94956.72
2022-08-26T20:19:07.074Z,94957.42
2022-08-26T20:21:38.177Z,94964.75
2022-08-26T20:24:09.865Z,94965.03
2022-08-26T20:26:40.480Z,94962.92
2022-08-26T20:29:11.602Z,94962.17
2022-08-26T20:31:41.077Z,94968.28
2022-08-26T20:34:09.952Z,94956.70
2022-08-26T20:36:40.859Z,94959.75
2022-08-26T20:39:10.920Z,94954.73
2022-08-26T20:41:40.211Z,94955.86
2022-08-26T20:44:10.806Z,94955.86
2022-08-26T20:46:40.893Z,94961.20
2022-08-26T20:49:15.031Z,94964.87
2022-08-26T20:51:45.983Z,94968.59
2022-08-26T20:54:15.769Z,94967.80
2022-08-26T20:59:38.539Z,94963.03
2022-08-26T21:05:06.859Z,94970.30
2022-08-26T21:08:37.037Z,94968.88
2022-08-26T21:20:34.544Z,94969.00
2022-08-26T21:23:03.561Z,94964.28
2022-08-26T21:35:41.927Z,94981.88
2022-08-26T21:41:41.120Z,94973.32
2022-08-26T21:48:53.828Z,94980.84
2022-08-26T21:51:34.009Z,94989.16
2022-08-26T21:54:22.724Z,94982.52
2022-08-26T22:00:09.817Z,94992.89
2022-08-26T22:02:38.643Z,94990.51
2022-08-26T22:05:15.934Z,94992.34
2022-08-26T22:07:52.435Z,94983.56
2022-08-26T22:31:44.511Z,94995.13
2022-08-26T22:36:59.113Z,94999.05
2022-08-26T22:39:33.323Z,95000.72
2022-08-26T23:14:47.744Z,94936.81
2022-08-26T23:16:58.350Z,94908.95
2022-08-26T23:19:38.772Z,94991.63
2022-08-26T23:22:25.198Z,94994.16
2022-08-26T23:31:23.189Z,94991.27
2022-08-26T23:34:31.478Z,94993.63
2022-08-26T23:37:29.487Z,94989.09
2022-08-26T23:40:06.817Z,94986.56
2022-08-26T23:42:52.180Z,94997.62
2022-08-26T23:48:42.574Z,95003.25
2022-08-26T23:51:49.160Z,95003.08
2022-08-26T23:54:31.464Z,95004.33
2022-08-26T23:57:03.859Z,95001.08
